createdAt,value
2023-05-13T00:00:59.986Z,7.57
2023-05-13T00:03:26.903Z,6.43
2023-05-13T00:05:53.754Z,7.32
2023-05-13T00:08:20.524Z,7.38
2023-05-13T00:10:47.253Z,7.20
2023-05-13T00:13:13.948Z,6.32
2023-05-13T00:15:40.951Z,6.75
2023-05-13T00:18:07.777Z,6.63
2023-05-13T00:20:34.467Z,6.30
2023-05-13T00:23:01.164Z,6.38
2023-05-13T00:25:27.878Z,6.38
2023-05-13T00:27:54.660Z,7.13
2023-05-13T00:30:21.562Z,6.85
2023-05-13T00:32:48.499Z,7.03
2023-05-13T00:35:15.284Z,7.35
2023-05-13T00:37:42.049Z,7.35
2023-05-13T00:40:16.403Z,5.82
2023-05-13T00:42:43.312Z,6.15
2023-05-13T00:45:10.575Z,6.38
2023-05-13T00:47:37.302Z,6.40
2023-05-13T00:50:04.250Z,6.40
2023-05-13T00:52:30.931Z,6.65
2023-05-13T00:54:58.223Z,7.38
2023-05-13T00:57:25.034Z,6.90
2023-05-13T00:59:52.042Z,6.25
2023-05-13T01:02:32.765Z,6.90
2023-05-13T01:05:05.730Z,6.72
2023-05-13T01:07:35.512Z,6.72
2023-05-13T01:10:28.377Z,7.03
2023-05-13T01:12:58.270Z,7.60
2023-05-13T01:18:02.203Z,7.63
2023-05-13T01:20:30.690Z,6.95
2023-05-13T01:22:57.725Z,6.70
2023-05-13T01:25:25.827Z,7.75
2023-05-13T01:27:53.092Z,7.53
2023-05-13T01:30:20.866Z,7.65
2023-05-13T01:32:48.617Z,7.15
2023-05-13T01:35:16.807Z,8.15
2023-05-13T01:37:45.803Z,8.25
2023-05-13T01:40:28.224Z,8.05
2023-05-13T01:43:00.882Z,8.20
2023-05-13T01:45:28.455Z,8.00
2023-05-13T01:47:55.800Z,9.35
2023-05-13T01:50:23.078Z,8.38
2023-05-13T01:52:50.047Z,7.97
2023-05-13T01:55:16.866Z,8.60
2023-05-13T01:57:46.324Z,9.07
2023-05-13T02:00:13.339Z,9.02
2023-05-13T02:05:09.712Z,7.72
2023-05-13T02:07:37.517Z,7.72
2023-05-13T02:10:04.414Z,8.60
2023-05-13T02:12:32.301Z,8.40
2023-05-13T02:14:59.015Z,8.45
2023-05-13T02:17:25.970Z,8.98
2023-05-13T02:19:53.530Z,8.55
2023-05-13T02:22:20.245Z,8.77
2023-05-13T02:24:46.880Z,8.88
2023-05-13T02:27:16.420Z,9.07
2023-05-13T02:29:43.088Z,9.02
2023-05-13T02:32:10.921Z,9.05
2023-05-13T02:34:37.905Z,8.93
2023-05-13T02:37:04.742Z,9.00
2023-05-13T02:39:33.032Z,9.48
2023-05-13T02:42:00.033Z,8.70
2023-05-13T02:44:31.686Z,9.68
2023-05-13T02:46:58.451Z,10.57
2023-05-13T02:49:25.148Z,9.82
2023-05-13T02:51:51.876Z,10.38
2023-05-13T02:54:23.524Z,9.48
2023-05-13T02:56:50.174Z,9.38
2023-05-13T02:59:16.882Z,9.73
2023-05-13T03:01:43.798Z,9.75
2023-05-13T03:04:10.498Z,10.75
2023-05-13T03:06:37.181Z,10.00
2023-05-13T03:09:04.124Z,9.80
2023-05-13T03:11:30.883Z,10.18
2023-05-13T03:13:58.858Z,10.73
2023-05-13T03:16:26.253Z,10.18
2023-05-13T03:18:53.077Z,9.98
2023-05-13T03:21:19.860Z,11.35
2023-05-13T03:23:46.950Z,10.00
2023-05-13T03:26:14.180Z,10.50
2023-05-13T03:28:40.890Z,10.55
2023-05-13T03:31:07.889Z,11.23
2023-05-13T03:33:38.050Z,10.70
2023-05-13T03:36:05.089Z,11.88
2023-05-13T03:38:32.241Z,11.27
2023-05-13T03:40:59.083Z,11.40
2023-05-13T03:43:26.136Z,11.52
2023-05-13T03:45:59.942Z,10.82
2023-05-13T03:48:26.844Z,10.80
2023-05-13T03:50:55.698Z,10.73
2023-05-13T03:53:23.353Z,11.90
2023-05-13T03:55:50.619Z,11.77
2023-05-13T03:58:17.426Z,11.50
2023-05-13T04:00:46.995Z,12.18
2023-05-13T04:03:14.306Z,11.25
2023-05-13T04:05:42.005Z,11.48
2023-05-13T04:08:08.700Z,11.85
2023-05-13T04:10:35.716Z,11.50
2023-05-13T04:13:02.424Z,11.43
2023-05-13T04:15:29.145Z,10.63
2023-05-13T04:17:55.969Z,11.80
2023-05-13T04:20:22.930Z,10.98
2023-05-13T04:22:50.037Z,11.18
2023-05-13T04:25:16.730Z,11.30
2023-05-13T04:27:43.482Z,12.75
2023-05-13T04:30:16.188Z,11.75
2023-05-13T04:32:44.523Z,11.65
2023-05-13T04:35:12.529Z,11.73
2023-05-13T04:37:41.259Z,12.60
2023-05-13T04:40:11.709Z,12.25
2023-05-13T04:42:38.415Z,13.93
2023-05-13T04:45:05.309Z,14.20
2023-05-13T04:47:35.373Z,16.52
2023-05-13T04:50:02.312Z,16.98
2023-05-13T04:52:30.479Z,17.05
2023-05-13T04:54:57.397Z,17.50
2023-05-13T04:57:24.139Z,18.20
2023-05-13T04:59:50.953Z,18.20
2023-05-13T05:02:18.428Z,17.90
2023-05-13T05:04:45.326Z,18.52
2023-05-13T05:07:14.260Z,20.15
2023-05-13T05:09:41.052Z,17.92
2023-05-13T05:12:08.141Z,18.60
2023-05-13T05:14:38.372Z,20.05
2023-05-13T05:17:06.705Z,20.60
2023-05-13T05:19:33.732Z,19.25
2023-05-13T05:22:00.468Z,18.48
2023-05-13T05:24:27.158Z,19.50
2023-05-13T05:26:53.878Z,16.80
2023-05-13T05:29:21.079Z,16.70
2023-05-13T05:31:47.889Z,16.90
2023-05-13T05:34:15.017Z,17.63
2023-05-13T05:36:43.174Z,17.85
2023-05-13T05:39:11.244Z,16.92
2023-05-13T05:41:38.007Z,16.13
2023-05-13T05:44:04.740Z,16.88
2023-05-13T05:46:32.928Z,17.02
2023-05-13T05:49:02.716Z,16.27
2023-05-13T05:51:31.859Z,16.48
2023-05-13T05:54:01.788Z,15.50
2023-05-13T05:56:28.654Z,15.40
2023-05-13T05:58:55.490Z,15.82
2023-05-13T06:01:22.204Z,14.13
2023-05-13T06:03:49.656Z,13.93
2023-05-13T06:06:18.523Z,13.95
2023-05-13T06:08:45.318Z,13.00
2023-05-13T06:11:13.333Z,13.80
2023-05-13T06:13:40.070Z,13.13
2023-05-13T06:16:06.911Z,13.40
2023-05-13T06:18:33.664Z,14.23
2023-05-13T06:21:00.543Z,14.38
2023-05-13T06:23:27.278Z,12.80
2023-05-13T06:25:54.086Z,12.18
2023-05-13T06:28:20.828Z,11.18
2023-05-13T06:30:49.854Z,10.73
2023-05-13T06:33:16.649Z,10.93
2023-05-13T06:35:48.157Z,11.00
2023-05-13T06:38:17.985Z,10.95
2023-05-13T06:40:46.048Z,10.15
2023-05-13T06:43:16.613Z,10.43
2023-05-13T06:45:47.435Z,10.77
2023-05-13T06:48:14.771Z,9.80
2023-05-13T06:50:41.779Z,9.50
2023-05-13T06:53:09.408Z,9.48
2023-05-13T06:55:41.811Z,10.05
2023-05-13T06:58:08.913Z,8.77
2023-05-13T07:00:39.351Z,9.20
2023-05-13T07:03:06.991Z,9.20
2023-05-13T07:05:33.849Z,9.63
2023-05-13T07:08:00.757Z,10.15
2023-05-13T07:10:27.512Z,9.68
2023-05-13T07:12:54.233Z,9.25
2023-05-13T07:15:21.298Z,8.30
2023-05-13T07:17:48.290Z,8.88
2023-05-13T07:20:15.383Z,9.48
2023-05-13T07:22:42.143Z,8.85
2023-05-13T07:25:09.376Z,9.50
2023-05-13T07:27:36.116Z,8.00
2023-05-13T07:30:02.826Z,8.30
2023-05-13T07:32:30.464Z,8.80
2023-05-13T07:34:57.134Z,8.68
2023-05-13T07:37:24.719Z,8.77
2023-05-13T07:39:51.368Z,8.88
2023-05-13T07:42:19.348Z,9.60
2023-05-13T07:44:46.155Z,8.07
2023-05-13T07:47:13.759Z,8.35
2023-05-13T07:49:40.597Z,7.53
2023-05-13T07:52:07.903Z,7.55
2023-05-13T07:54:34.666Z,7.93
2023-05-13T07:57:01.414Z,7.70
2023-05-13T07:59:28.085Z,7.82
2023-05-13T08:01:54.769Z,7.95
2023-05-13T08:04:21.818Z,8.40
2023-05-13T08:06:48.589Z,7.75
2023-05-13T08:09:15.404Z,6.85
2023-05-13T08:11:42.041Z,6.72
2023-05-13T08:14:08.740Z,8.55
2023-05-13T08:16:36.503Z,7.82
2023-05-13T08:19:03.562Z,7.60
2023-05-13T08:21:30.650Z,7.60
2023-05-13T08:23:57.351Z,7.05
2023-05-13T08:26:24.115Z,7.93
2023-05-13T08:28:54.498Z,8.30
2023-05-13T08:31:22.006Z,8.30
2023-05-13T08:33:48.849Z,7.35
2023-05-13T08:36:16.075Z,7.93
2023-05-13T08:38:43.842Z,7.53
2023-05-13T08:41:17.114Z,7.05
2023-05-13T08:43:44.457Z,6.80
2023-05-13T08:46:12.153Z,8.07
2023-05-13T08:48:41.066Z,6.95
2023-05-13T08:51:08.512Z,7.30
2023-05-13T08:53:36.068Z,7.00
2023-05-13T08:56:02.767Z,6.95
2023-05-13T08:58:29.555Z,7.00
2023-05-13T09:00:56.617Z,7.32
2023-05-13T09:03:26.177Z,6.85
2023-05-13T09:05:52.952Z,7.45
2023-05-13T09:08:19.671Z,5.90
2023-05-13T09:10:46.786Z,7.28
2023-05-13T09:13:13.678Z,6.72
2023-05-13T09:15:44.568Z,5.57
2023-05-13T09:18:11.600Z,5.90
2023-05-13T09:20:38.481Z,4.90
2023-05-13T09:23:09.448Z,5.93
2023-05-13T09:25:37.277Z,6.25
2023-05-13T09:28:05.050Z,5.88
2023-05-13T09:30:35.850Z,4.70
2023-05-13T09:33:09.067Z,5.32
2023-05-13T09:35:42.660Z,4.43
2023-05-13T09:38:15.062Z,4.82
2023-05-13T09:40:42.168Z,3.65
2023-05-13T09:43:08.909Z,4.22
2023-05-13T09:45:36.346Z,3.80
2023-05-13T09:48:03.374Z,3.90
2023-05-13T09:50:31.606Z,4.57
2023-05-13T09:52:58.412Z,4.00
2023-05-13T09:55:25.117Z,4.13
2023-05-13T09:57:53.354Z,4.78
2023-05-13T10:00:31.524Z,3.80
2023-05-13T10:03:02.519Z,3.90
2023-05-13T10:05:29.639Z,4.47
2023-05-13T10:07:57.193Z,3.33
2023-05-13T10:10:24.308Z,4.00
2023-05-13T10:12:51.727Z,4.00
2023-05-13T10:15:18.919Z,4.80
2023-05-13T10:17:46.955Z,3.58
2023-05-13T10:20:14.436Z,4.38
2023-05-13T10:22:41.244Z,4.15
2023-05-13T10:25:08.889Z,4.20
2023-05-13T10:27:35.621Z,3.88
2023-05-13T10:30:03.675Z,4.38
2023-05-13T10:32:31.554Z,4.07
2023-05-13T10:35:04.188Z,3.97
2023-05-13T10:37:45.379Z,3.03
2023-05-13T10:40:30.802Z,4.03
2023-05-13T10:43:06.452Z,3.83
2023-05-13T10:48:05.601Z,3.35
2023-05-13T10:50:32.350Z,3.90
2023-05-13T10:52:59.148Z,3.05
2023-05-13T10:55:26.784Z,3.22
2023-05-13T10:58:12.413Z,3.42
2023-05-13T11:00:43.146Z,2.80
2023-05-13T11:03:13.756Z,3.10
2023-05-13T11:05:41.848Z,3.65
2023-05-13T11:08:08.558Z,3.35
2023-05-13T11:10:35.327Z,3.10
2023-05-13T11:13:14.022Z,2.97
2023-05-13T11:15:44.926Z,3.05
2023-05-13T11:18:15.076Z,3.25
2023-05-13T11:20:52.206Z,2.72
2023-05-13T11:23:20.340Z,3.38
2023-05-13T11:25:48.225Z,3.35
2023-05-13T11:28:16.103Z,3.03
2023-05-13T11:30:52.928Z,2.88
2023-05-13T11:33:19.647Z,3.58
2023-05-13T11:35:53.517Z,2.85
2023-05-13T11:38:25.194Z,2.88
2023-05-13T11:40:52.828Z,3.22
2023-05-13T11:43:21.137Z,2.60
2023-05-13T11:45:47.963Z,3.00
2023-05-13T11:48:19.305Z,2.97
2023-05-13T11:50:46.231Z,2.85
2023-05-13T11:53:19.346Z,3.05
2023-05-13T11:55:46.056Z,2.60
2023-05-13T11:58:13.869Z,2.70
2023-05-13T12:00:40.574Z,2.75
2023-05-13T12:03:12.176Z,3.10
2023-05-13T12:05:44.352Z,3.55
2023-05-13T12:08:11.662Z,3.03
2023-05-13T12:10:45.145Z,3.00
2023-05-13T12:13:12.594Z,3.05
2023-05-13T12:15:39.383Z,3.50
2023-05-13T12:18:06.850Z,3.50
2023-05-13T12:20:33.728Z,3.08
2023-05-13T12:23:01.112Z,2.95
2023-05-13T12:25:48.027Z,3.05
2023-05-13T12:28:18.081Z,4.30
2023-05-13T12:30:53.833Z,3.47
2023-05-13T12:33:24.574Z,3.85
2023-05-13T12:35:53.471Z,3.13
2023-05-13T12:38:24.806Z,3.75
2023-05-13T12:40:51.791Z,3.80
2023-05-13T12:43:19.846Z,4.07
2023-05-13T12:45:47.380Z,3.58
2023-05-13T12:48:14.821Z,4.75
2023-05-13T12:50:41.548Z,3.05
2023-05-13T12:53:08.233Z,3.53
2023-05-13T12:55:40.330Z,3.75
2023-05-13T12:58:07.573Z,3.50
2023-05-13T13:00:34.391Z,3.45
2023-05-13T13:03:01.441Z,3.63
2023-05-13T13:05:28.239Z,3.58
2023-05-13T13:07:54.891Z,3.72
2023-05-13T13:10:21.703Z,3.65
2023-05-13T13:12:49.733Z,3.50
2023-05-13T13:15:16.597Z,3.80
2023-05-13T13:17:43.348Z,4.00
2023-05-13T13:20:10.217Z,3.28
2023-05-13T13:22:37.500Z,3.63
2023-05-13T13:25:07.441Z,3.20
2023-05-13T13:27:34.965Z,3.75
2023-05-13T13:30:02.036Z,3.55
2023-05-13T13:32:28.896Z,3.75
2023-05-13T13:34:56.110Z,3.92
2023-05-13T13:37:22.798Z,4.05
2023-05-13T13:39:49.552Z,2.90
2023-05-13T13:42:16.398Z,3.25
2023-05-13T13:44:43.058Z,3.30
2023-05-13T13:47:10.033Z,3.55
2023-05-13T13:49:36.680Z,3.20
2023-05-13T13:52:03.394Z,3.17
2023-05-13T13:54:30.092Z,3.75
2023-05-13T13:56:56.741Z,3.42
2023-05-13T13:59:23.460Z,3.17
2023-05-13T14:01:50.149Z,3.65
2023-05-13T14:04:20.503Z,3.63
2023-05-13T14:06:47.202Z,3.58
2023-05-13T14:09:13.897Z,3.33
2023-05-13T14:11:40.623Z,3.83
2023-05-13T14:14:08.537Z,3.67
2023-05-13T14:16:35.758Z,3.95
2023-05-13T14:19:02.549Z,3.85
2023-05-13T14:21:29.220Z,3.63
2023-05-13T14:23:55.921Z,3.13
2023-05-13T14:26:22.696Z,3.13
2023-05-13T14:28:49.497Z,3.70
2023-05-13T14:31:16.290Z,3.42
2023-05-13T14:33:42.990Z,3.80
2023-05-13T14:36:11.373Z,3.50
2023-05-13T14:38:40.033Z,3.65
2023-05-13T14:41:06.742Z,3.55
2023-05-13T14:43:33.396Z,3.35
2023-05-13T14:46:00.158Z,3.38
2023-05-13T14:48:27.527Z,3.03
2023-05-13T14:50:54.355Z,3.38
2023-05-13T14:53:21.178Z,3.10
2023-05-13T14:55:50.037Z,3.60
2023-05-13T14:58:18.192Z,3.40
2023-05-13T15:00:44.981Z,4.05
2023-05-13T15:03:12.192Z,3.42
2023-05-13T15:05:38.958Z,3.45
2023-05-13T15:08:05.619Z,3.90
2023-05-13T15:10:32.238Z,3.42
2023-05-13T15:12:59.230Z,3.15
2023-05-13T15:15:26.000Z,3.45
2023-05-13T15:17:52.886Z,3.50
2023-05-13T15:20:19.790Z,4.13
2023-05-13T15:22:46.584Z,3.95
2023-05-13T15:25:13.350Z,4.38
2023-05-13T15:27:40.070Z,5.35
2023-05-13T15:30:07.358Z,4.78
2023-05-13T15:32:34.128Z,3.88
2023-05-13T15:35:00.913Z,3.67
2023-05-13T15:37:27.708Z,3.80
2023-05-13T15:39:54.602Z,3.50
2023-05-13T15:42:21.636Z,4.00
2023-05-13T15:44:48.336Z,3.35
2023-05-13T15:47:15.140Z,4.22
2023-05-13T15:49:42.300Z,3.97
2023-05-13T15:52:09.011Z,3.95
2023-05-13T15:54:35.774Z,3.50
2023-05-13T15:57:02.509Z,3.05
2023-05-13T15:59:29.215Z,4.13
2023-05-13T16:01:55.974Z,3.90
2023-05-13T16:04:22.756Z,3.75
2023-05-13T16:06:49.443Z,4.30
2023-05-13T16:09:16.141Z,4.10
2023-05-13T16:11:43.626Z,3.42
2023-05-13T16:14:10.523Z,3.38
2023-05-13T16:16:37.727Z,3.83
2023-05-13T16:19:04.724Z,4.50
2023-05-13T16:21:31.912Z,3.90
2023-05-13T16:23:58.682Z,4.70
2023-05-13T16:26:26.500Z,4.60
2023-05-13T16:28:53.166Z,3.92
2023-05-13T16:31:19.880Z,3.67
2023-05-13T16:33:46.584Z,3.90
2023-05-13T16:36:13.322Z,4.32
2023-05-13T16:38:41.737Z,4.13
2023-05-13T16:41:08.895Z,3.45
2023-05-13T16:43:35.660Z,4.57
2023-05-13T16:46:02.667Z,3.42
2023-05-13T16:48:29.572Z,3.63
2023-05-13T16:50:56.376Z,3.35
2023-05-13T16:53:23.156Z,3.28
2023-05-13T16:55:50.308Z,3.08
2023-05-13T16:58:17.119Z,3.28
2023-05-13T17:00:43.938Z,3.20
2023-05-13T17:03:11.113Z,3.17
2023-05-13T17:05:38.003Z,4.00
2023-05-13T17:08:04.756Z,3.38
2023-05-13T17:10:31.503Z,3.95
2023-05-13T17:12:58.490Z,3.60
2023-05-13T17:15:25.439Z,3.95
2023-05-13T17:17:52.218Z,3.40
2023-05-13T17:20:19.959Z,4.00
2023-05-13T17:22:47.702Z,3.38
2023-05-13T17:25:14.785Z,3.53
2023-05-13T17:27:41.649Z,3.28
2023-05-13T17:30:08.699Z,4.07
2023-05-13T17:32:38.289Z,3.25
2023-05-13T17:35:05.335Z,3.45
2023-05-13T17:37:31.998Z,3.50
2023-05-13T17:40:00.939Z,3.38
2023-05-13T17:42:29.187Z,3.22
2023-05-13T17:44:56.217Z,3.63
2023-05-13T17:47:23.051Z,3.63
2023-05-13T17:49:49.921Z,2.72
2023-05-13T17:52:16.609Z,3.58
2023-05-13T17:54:43.385Z,3.50
2023-05-13T17:57:11.257Z,3.78
2023-05-13T17:59:38.069Z,3.17
2023-05-13T18:02:04.922Z,3.70
2023-05-13T18:04:31.738Z,3.20
2023-05-13T18:06:58.420Z,3.40
2023-05-13T18:09:25.191Z,3.38
2023-05-13T18:11:51.932Z,3.80
2023-05-13T18:14:18.833Z,3.05
2023-05-13T18:16:45.758Z,3.67
2023-05-13T18:19:12.567Z,3.50
2023-05-13T18:21:39.293Z,3.72
2023-05-13T18:24:06.259Z,3.10
2023-05-13T18:26:32.935Z,3.15
2023-05-13T18:28:59.694Z,3.20
2023-05-13T18:31:26.623Z,3.60
2023-05-13T18:33:53.409Z,3.53
2023-05-13T18:36:20.142Z,3.40
2023-05-13T18:38:48.106Z,3.42
2023-05-13T18:41:15.224Z,4.28
2023-05-13T18:43:41.950Z,3.85
2023-05-13T18:46:09.006Z,3.83
2023-05-13T18:48:35.930Z,3.08
2023-05-13T18:51:02.603Z,3.65
2023-05-13T18:53:29.305Z,3.88
2023-05-13T18:55:56.013Z,3.63
2023-05-13T18:58:22.993Z,3.40
2023-05-13T19:00:49.812Z,4.07
2023-05-13T19:05:43.377Z,4.20
2023-05-13T19:08:10.105Z,3.90
2023-05-13T19:10:39.905Z,3.90
2023-05-13T19:13:07.341Z,4.32
2023-05-13T19:15:34.135Z,4.65
2023-05-13T19:18:01.303Z,4.30
2023-05-13T19:20:28.193Z,4.53
2023-05-13T19:22:54.875Z,5.00
2023-05-13T19:25:21.592Z,4.20
2023-05-13T19:27:49.555Z,5.20
2023-05-13T19:30:16.381Z,4.78
2023-05-13T19:32:43.936Z,4.70
2023-05-13T19:35:11.566Z,6.22
2023-05-13T19:37:38.351Z,5.55
2023-05-13T19:40:05.556Z,5.43
2023-05-13T19:42:32.401Z,6.20
2023-05-13T19:44:59.136Z,6.18
2023-05-13T19:47:27.080Z,6.22
2023-05-13T19:49:54.118Z,5.75
2023-05-13T19:52:21.056Z,5.88
2023-05-13T19:54:47.734Z,6.88
2023-05-13T19:57:14.490Z,7.00
2023-05-13T19:59:41.933Z,6.15
2023-05-13T20:02:09.008Z,6.70
2023-05-13T20:04:35.893Z,6.25
2023-05-13T20:07:02.663Z,6.13
2023-05-13T20:09:29.531Z,6.68
2023-05-13T20:11:56.273Z,5.72
2023-05-13T20:14:23.459Z,6.72
2023-05-13T20:16:50.436Z,7.03
2023-05-13T20:19:17.384Z,6.82
2023-05-13T20:21:44.485Z,6.28
2023-05-13T20:24:11.236Z,7.45
2023-05-13T20:26:37.904Z,6.55
2023-05-13T20:29:04.758Z,7.38
2023-05-13T20:31:31.509Z,7.70
2023-05-13T20:33:58.737Z,6.75
2023-05-13T20:36:25.475Z,8.02
2023-05-13T20:38:52.153Z,6.07
2023-05-13T20:41:18.839Z,6.78
2023-05-13T20:43:45.504Z,6.60
2023-05-13T20:46:17.008Z,6.20
2023-05-13T20:48:43.897Z,5.90
2023-05-13T20:51:10.888Z,7.13
2023-05-13T20:53:37.896Z,7.78
2023-05-13T20:56:04.876Z,6.78
2023-05-13T20:58:31.630Z,7.97
2023-05-13T21:00:58.350Z,7.78
2023-05-13T21:03:25.382Z,7.07
2023-05-13T21:05:52.176Z,6.35
2023-05-13T21:08:18.968Z,7.70
2023-05-13T21:10:45.731Z,7.43
2023-05-13T21:13:12.638Z,7.20
2023-05-13T21:15:39.501Z,7.18
2023-05-13T21:18:06.464Z,6.75
2023-05-13T21:20:33.691Z,8.13
2023-05-13T21:23:01.494Z,7.20
2023-05-13T21:25:28.265Z,8.70
2023-05-13T21:27:55.117Z,8.27
2023-05-13T21:30:21.978Z,8.18
2023-05-13T21:32:48.886Z,8.00
2023-05-13T21:35:15.997Z,8.30
2023-05-13T21:37:43.178Z,8.30
2023-05-13T21:40:10.704Z,7.93
2023-05-13T21:42:37.375Z,8.10
2023-05-13T21:45:04.117Z,8.48
2023-05-13T21:47:30.952Z,8.10
2023-05-13T21:49:57.707Z,8.25
2023-05-13T21:52:24.692Z,8.07
2023-05-13T21:54:52.609Z,9.00
2023-05-13T21:57:19.345Z,8.65
2023-05-13T21:59:46.102Z,8.65
2023-05-13T22:02:12.838Z,9.05
2023-05-13T22:04:39.496Z,9.00
2023-05-13T22:07:06.221Z,8.80
2023-05-13T22:09:32.912Z,9.00
2023-05-13T22:11:59.599Z,8.35
2023-05-13T22:14:26.524Z,8.45
2023-05-13T22:17:07.936Z,9.77
2023-05-13T22:19:36.298Z,8.35
2023-05-13T22:22:03.070Z,8.30
2023-05-13T22:24:29.702Z,8.60
2023-05-13T22:26:56.427Z,9.00
2023-05-13T22:29:23.110Z,9.30
2023-05-13T22:31:50.984Z,8.52
2023-05-13T22:34:18.036Z,9.13
2023-05-13T22:36:44.815Z,9.27
2023-05-13T22:39:12.494Z,8.82
2023-05-13T22:41:39.127Z,8.95
2023-05-13T22:44:05.808Z,9.75
2023-05-13T22:46:32.621Z,9.13
2023-05-13T22:48:59.303Z,10.48
2023-05-13T22:51:25.964Z,10.18
2023-05-13T22:53:52.634Z,9.43
2023-05-13T22:56:19.284Z,8.75
2023-05-13T22:58:46.291Z,10.43
2023-05-13T23:01:13.176Z,11.55
2023-05-13T23:03:39.940Z,10.25
2023-05-13T23:06:06.678Z,9.77
2023-05-13T23:08:33.452Z,10.25
2023-05-13T23:11:00.179Z,10.68
2023-05-13T23:13:26.836Z,10.25
2023-05-13T23:15:53.521Z,9.82
2023-05-13T23:18:20.236Z,11.00
2023-05-13T23:20:51.343Z,10.00
2023-05-13T23:23:18.080Z,10.35
2023-05-13T23:25:47.496Z,9.65
2023-05-13T23:28:14.310Z,10.63
2023-05-13T23:30:41.557Z,10.70
2023-05-13T23:33:08.610Z,11.50
2023-05-13T23:35:35.652Z,9.75
2023-05-13T23:38:02.518Z,11.27
2023-05-13T23:40:29.268Z,11.25
2023-05-13T23:42:55.918Z,11.40
2023-05-13T23:45:22.634Z,11.27
2023-05-13T23:47:50.211Z,11.48
2023-05-13T23:50:16.978Z,11.13
2023-05-13T23:52:43.911Z,10.65
2023-05-13T23:55:10.734Z,11.90
2023-05-13T23:57:37.406Z,11.55
